Time;durP1;ratioP1;P1;durP2;ratioP2;P2;SDS_P1;SDS_P2;PMS_P1;PMS_P2;Temp;Humidity;BMP_temperature;BMP_pressure;BME280_temperature;BME280_humidity;BME280_pressure;Samples;Min_cycle;Max_cycle;Signal;HPM_P1;HPM_P2
2024/04/14 00:01:57;;;;;;;15.90;5.18;;;;;;;;;;5414109;26;25036;-78
2024/04/14 00:04:23;;;;;;;19.95;5.18;;;;;;;;;;5418411;26;25044;-77
2024/04/14 00:06:49;;;;;;;14.23;4.40;;;;;;;;;;5411226;26;25043;-77
2024/04/14 00:09:15;;;;;;;22.98;5.63;;;;;;;;;;5415358;26;25043;-77
2024/04/14 00:11:41;;;;;;;19.20;5.30;;;;;;;;;;5409125;26;25062;-77
2024/04/14 00:14:07;;;;;;;17.70;5.18;;;;;;;;;;5395453;26;25047;-77
2024/04/14 00:16:33;;;;;;;19.75;5.65;;;;;;;;;;5412785;26;25137;-76
2024/04/14 00:18:59;;;;;;;28.73;5.40;;;;;;;;;;5405190;26;25063;-75
2024/04/14 00:21:26;;;;;;;21.95;6.22;;;;;;;;;;5396513;26;24963;-77
2024/04/14 00:23:52;;;;;;;18.20;5.15;;;;;;;;;;5389576;21;25053;-62
2024/04/14 00:26:18;;;;;;;19.20;5.97;;;;;;;;;;5333530;26;25060;-64
2024/04/14 00:28:44;;;;;;;16.27;5.32;;;;;;;;;;5334291;26;25032;-62
2024/04/14 00:31:11;;;;;;;21.63;5.13;;;;;;;;;;5329584;26;25089;-62
2024/04/14 00:33:37;;;;;;;20.60;5.18;;;;;;;;;;5333535;26;25064;-61
2024/04/14 00:36:03;;;;;;;16.33;5.05;;;;;;;;;;5326236;26;25041;-62
2024/04/14 00:38:29;;;;;;;15.60;6.07;;;;;;;;;;5323193;26;25053;-62
2024/04/14 00:40:55;;;;;;;22.90;5.88;;;;;;;;;;5330911;26;25054;-63
2024/04/14 00:43:21;;;;;;;21.55;5.25;;;;;;;;;;5333806;26;25038;-63
2024/04/14 00:45:47;;;;;;;17.75;4.85;;;;;;;;;;5338734;26;25049;-65
2024/04/14 00:48:13;;;;;;;18.23;4.38;;;;;;;;;;5328744;26;25092;-63
2024/04/14 00:50:40;;;;;;;17.88;5.68;;;;;;;;;;5337717;26;25050;-64
2024/04/14 00:53:08;;;;;;;13.30;4.15;;;;;;;;;;5336175;26;25106;-66
2024/04/14 00:55:34;;;;;;;10.98;3.40;;;;;;;;;;5329065;26;25059;-63
2024/04/14 00:58:01;;;;;;;15.00;3.17;;;;;;;;;;5329090;26;25097;-66
2024/04/14 01:00:27;;;;;;;12.48;3.85;;;;;;;;;;5335628;26;25036;-64
2024/04/14 01:02:55;;;;;;;13.50;4.40;;;;;;;;;;5315571;26;25050;-63
2024/04/14 01:05:24;;;;;;;14.05;3.78;;;;;;;;;;5330214;26;25092;-67
2024/04/14 01:07:51;;;;;;;13.43;4.28;;;;;;;;;;5331062;26;25058;-64
2024/04/14 01:10:17;;;;;;;17.25;3.70;;;;;;;;;;5336423;26;25073;-64
2024/04/14 01:12:43;;;;;;;10.48;3.33;;;;;;;;;;5322018;26;25126;-63
2024/04/14 01:15:09;;;;;;;13.38;3.55;;;;;;;;;;5322143;26;25068;-65
2024/04/14 01:17:35;;;;;;;16.00;3.72;;;;;;;;;;5360215;26;25058;-61
2024/04/14 01:20:01;;;;;;;14.85;3.22;;;;;;;;;;5332167;26;25052;-64
2024/04/14 01:22:27;;;;;;;12.40;2.88;;;;;;;;;;5358578;26;25045;-63
2024/04/14 01:25:02;;;;;;;13.13;3.72;;;;;;;;;;5364247;26;25039;-64
2024/04/14 01:27:28;;;;;;;14.25;3.38;;;;;;;;;;5324059;26;25056;-65
2024/04/14 01:29:54;;;;;;;11.20;2.63;;;;;;;;;;5332043;26;25040;-64
2024/04/14 01:32:20;;;;;;;11.85;3.03;;;;;;;;;;5328118;26;25144;-62
2024/04/14 01:34:46;;;;;;;15.15;2.70;;;;;;;;;;5353731;26;25129;-61
2024/04/14 01:37:12;;;;;;;15.02;2.63;;;;;;;;;;5334341;26;25064;-64
2024/04/14 01:39:38;;;;;;;13.25;2.30;;;;;;;;;;5336477;26;25065;-63
2024/04/14 01:42:04;;;;;;;6.63;2.22;;;;;;;;;;5334347;26;25080;-63
2024/04/14 01:44:30;;;;;;;12.63;3.05;;;;;;;;;;5335581;26;25060;-64
2024/04/14 01:46:56;;;;;;;6.88;1.92;;;;;;;;;;5326117;26;25050;-63
2024/04/14 01:49:22;;;;;;;10.70;2.35;;;;;;;;;;5330036;26;25123;-62
2024/04/14 01:51:48;;;;;;;11.00;2.42;;;;;;;;;;5336665;26;25066;-63
2024/04/14 01:54:14;;;;;;;9.13;2.67;;;;;;;;;;5328209;26;25091;-63
2024/04/14 01:56:40;;;;;;;9.52;2.30;;;;;;;;;;5333369;26;25059;-62
2024/04/14 01:59:06;;;;;;;8.00;2.47;;;;;;;;;;5334903;26;25099;-64
2024/04/14 02:01:32;;;;;;;10.00;1.98;;;;;;;;;;5327550;26;25036;-63
2024/04/14 02:03:58;;;;;;;12.27;2.05;;;;;;;;;;5326149;26;25039;-63
2024/04/14 02:06:24;;;;;;;11.07;2.88;;;;;;;;;;5327701;26;25055;-64
2024/04/14 02:08:54;;;;;;;12.75;2.25;;;;;;;;;;5327270;26;25029;-62
2024/04/14 02:11:20;;;;;;;8.52;2.08;;;;;;;;;;5327580;26;25050;-63
2024/04/14 02:13:46;;;;;;;12.25;2.80;;;;;;;;;;5333844;26;25067;-64
2024/04/14 02:16:12;;;;;;;13.82;2.72;;;;;;;;;;5333726;26;25058;-65
2024/04/14 02:18:38;;;;;;;9.70;2.20;;;;;;;;;;5333112;26;25053;-62
2024/04/14 02:21:04;;;;;;;9.95;2.08;;;;;;;;;;5332695;26;25053;-63
2024/04/14 02:23:30;;;;;;;8.98;2.00;;;;;;;;;;5331675;26;25050;-63
2024/04/14 02:25:56;;;;;;;11.82;2.00;;;;;;;;;;5331551;26;25112;-62
2024/04/14 02:28:22;;;;;;;10.10;2.30;;;;;;;;;;5334331;26;25057;-64
2024/04/14 02:30:49;;;;;;;10.48;2.00;;;;;;;;;;5324455;26;25048;-63
2024/04/14 02:33:15;;;;;;;12.23;2.25;;;;;;;;;;5318860;26;25057;-65
2024/04/14 02:35:41;;;;;;;15.32;3.30;;;;;;;;;;5318507;26;25049;-64
2024/04/14 02:38:07;;;;;;;12.95;2.20;;;;;;;;;;5326563;26;25055;-64
2024/04/14 02:40:33;;;;;;;16.00;3.20;;;;;;;;;;5331426;26;25089;-66
2024/04/14 02:42:59;;;;;;;8.32;2.30;;;;;;;;;;5326962;26;25055;-63
2024/04/14 02:45:25;;;;;;;14.20;2.80;;;;;;;;;;5338494;26;25061;-64
2024/04/14 02:47:51;;;;;;;8.63;3.15;;;;;;;;;;5327395;26;25048;-63
2024/04/14 02:50:17;;;;;;;12.77;2.05;;;;;;;;;;5335354;26;25077;-65
2024/04/14 02:52:43;;;;;;;7.75;2.13;;;;;;;;;;5324870;26;25036;-63
2024/04/14 02:55:09;;;;;;;11.18;2.55;;;;;;;;;;5325218;26;25067;-63
2024/04/14 02:57:36;;;;;;;8.60;2.08;;;;;;;;;;5334793;26;25066;-65
2024/04/14 03:00:02;;;;;;;12.57;2.28;;;;;;;;;;5321326;26;25407;-66
2024/04/14 03:02:28;;;;;;;18.23;2.58;;;;;;;;;;5352552;26;25060;-63
2024/04/14 03:04:54;;;;;;;14.55;2.70;;;;;;;;;;5318120;26;25050;-65
2024/04/14 03:07:20;;;;;;;8.77;2.28;;;;;;;;;;5324260;26;25067;-63
2024/04/14 03:09:46;;;;;;;8.48;2.63;;;;;;;;;;5324340;26;25058;-64
2024/04/14 03:12:13;;;;;;;9.00;2.45;;;;;;;;;;5318808;26;25113;-63
2024/04/14 03:14:39;;;;;;;13.48;2.28;;;;;;;;;;5334134;26;25060;-62
2024/04/14 03:17:05;;;;;;;9.98;2.70;;;;;;;;;;5329254;26;24998;-62
2024/04/14 03:19:31;;;;;;;12.27;2.28;;;;;;;;;;5321806;26;25052;-63
2024/04/14 03:21:57;;;;;;;7.13;2.15;;;;;;;;;;5341017;26;25078;-62
2024/04/14 03:24:23;;;;;;;13.57;3.00;;;;;;;;;;5325473;26;25100;-63
2024/04/14 03:26:50;;;;;;;10.93;2.67;;;;;;;;;;5317906;26;25056;-64
2024/04/14 03:29:15;;;;;;;13.02;2.40;;;;;;;;;;5329840;26;25068;-63
2024/04/14 03:31:41;;;;;;;15.85;2.47;;;;;;;;;;5330469;26;25041;-63
2024/04/14 03:34:07;;;;;;;11.13;2.15;;;;;;;;;;5325049;26;25060;-63
2024/04/14 03:36:33;;;;;;;7.80;2.10;;;;;;;;;;5331049;26;25043;-63
2024/04/14 03:38:59;;;;;;;14.13;2.30;;;;;;;;;;5317938;26;25068;-62
2024/04/14 03:41:25;;;;;;;12.57;2.53;;;;;;;;;;5325699;26;25059;-63
2024/04/14 03:43:51;;;;;;;7.93;2.10;;;;;;;;;;5332681;26;25056;-66
2024/04/14 03:46:17;;;;;;;7.68;1.80;;;;;;;;;;5339766;26;25052;-63
2024/04/14 03:48:43;;;;;;;12.85;2.03;;;;;;;;;;5321033;26;25057;-63
2024/04/14 03:51:09;;;;;;;13.00;2.60;;;;;;;;;;5324451;26;25055;-62
2024/04/14 03:53:35;;;;;;;10.27;2.45;;;;;;;;;;5320001;26;25051;-65
2024/04/14 03:56:01;;;;;;;7.45;2.15;;;;;;;;;;5324783;26;25038;-66
2024/04/14 03:58:27;;;;;;;11.43;2.25;;;;;;;;;;5333478;26;25056;-64
2024/04/14 04:00:53;;;;;;;10.63;1.88;;;;;;;;;;5326721;26;25054;-64
2024/04/14 04:03:19;;;;;;;13.13;2.97;;;;;;;;;;5319692;26;25043;-64
2024/04/14 04:05:54;;;;;;;9.32;2.17;;;;;;;;;;5326824;26;25077;-63
2024/04/14 04:08:21;;;;;;;10.65;2.55;;;;;;;;;;5336853;26;25044;-63
2024/04/14 04:10:56;;;;;;;19.45;2.90;;;;;;;;;;5321609;26;25157;-63
2024/04/14 04:13:22;;;;;;;14.63;2.47;;;;;;;;;;5332966;21;25094;-70
2024/04/14 04:15:58;;;;;;;10.18;1.95;;;;;;;;;;5397475;26;25081;-72
2024/04/14 04:18:25;;;;;;;5.68;1.77;;;;;;;;;;5396996;26;25051;-71
2024/04/14 04:20:57;;;;;;;12.23;3.45;;;;;;;;;;5398601;26;25053;-72
2024/04/14 04:23:24;;;;;;;7.85;1.83;;;;;;;;;;5403661;26;25053;-72
2024/04/14 04:25:50;;;;;;;8.88;2.00;;;;;;;;;;5403300;26;25042;-74
2024/04/14 04:28:16;;;;;;;11.98;2.40;;;;;;;;;;5391197;26;25082;-72
2024/04/14 04:30:42;;;;;;;10.38;2.70;;;;;;;;;;5402432;26;25047;-73
2024/04/14 04:33:08;;;;;;;11.90;2.97;;;;;;;;;;5396428;26;25047;-72
2024/04/14 04:35:34;;;;;;;10.27;2.38;;;;;;;;;;5393107;26;25044;-72
2024/04/14 04:38:01;;;;;;;18.88;2.60;;;;;;;;;;5401110;26;25100;-72
2024/04/14 04:40:27;;;;;;;9.32;2.20;;;;;;;;;;5399321;26;25041;-73
2024/04/14 04:42:53;;;;;;;12.07;1.90;;;;;;;;;;5393902;26;25037;-73
2024/04/14 04:45:19;;;;;;;11.13;2.17;;;;;;;;;;5399711;26;25067;-72
2024/04/14 04:47:46;;;;;;;8.20;2.13;;;;;;;;;;5402986;26;25059;-72
2024/04/14 04:50:15;;;;;;;13.43;2.42;;;;;;;;;;5398428;26;25086;-71
2024/04/14 04:52:41;;;;;;;17.90;2.80;;;;;;;;;;5404793;26;25050;-74
2024/04/14 04:55:07;;;;;;;14.02;2.28;;;;;;;;;;5403939;26;25063;-73
2024/04/14 04:57:33;;;;;;;11.63;2.25;;;;;;;;;;5402515;26;25074;-72
2024/04/14 04:59:59;;;;;;;13.60;2.55;;;;;;;;;;5405724;26;25050;-70
2024/04/14 05:02:44;;;;;;;11.48;2.50;;;;;;;;;;5406815;26;25091;-73
2024/04/14 05:05:10;;;;;;;13.77;2.70;;;;;;;;;;5396792;26;25045;-71
2024/04/14 05:07:36;;;;;;;10.77;2.10;;;;;;;;;;5403460;26;25080;-75
2024/04/14 05:10:02;;;;;;;11.55;3.33;;;;;;;;;;5397640;26;25036;-72
2024/04/14 05:12:28;;;;;;;13.25;2.63;;;;;;;;;;5398310;26;25068;-73
2024/04/14 05:14:54;;;;;;;9.25;2.75;;;;;;;;;;5404085;26;25105;-73
2024/04/14 05:17:20;;;;;;;11.55;2.38;;;;;;;;;;5396607;26;25067;-73
2024/04/14 05:19:46;;;;;;;10.00;2.42;;;;;;;;;;5395560;26;25063;-73
2024/04/14 05:22:12;;;;;;;16.38;3.45;;;;;;;;;;5398476;26;25077;-72
2024/04/14 05:24:38;;;;;;;18.80;3.10;;;;;;;;;;5399820;26;25068;-73
2024/04/14 05:27:05;;;;;;;11.60;2.75;;;;;;;;;;5398525;26;25059;-73
2024/04/14 05:29:31;;;;;;;14.63;2.42;;;;;;;;;;5392749;26;25077;-74
2024/04/14 05:31:57;;;;;;;13.35;2.80;;;;;;;;;;5394496;26;25122;-74
2024/04/14 05:34:23;;;;;;;12.68;2.90;;;;;;;;;;5402176;26;25054;-73
2024/04/14 05:37:07;;;;;;;16.30;3.45;;;;;;;;;;5396668;26;25069;-74
2024/04/14 05:39:34;;;;;;;10.30;2.47;;;;;;;;;;5390750;26;25054;-72
2024/04/14 05:42:00;;;;;;;11.82;2.97;;;;;;;;;;5395160;26;25049;-70
2024/04/14 05:44:26;;;;;;;15.02;3.00;;;;;;;;;;5395694;26;25074;-72
2024/04/14 05:47:20;;;;;;;12.00;2.55;;;;;;;;;;5398936;26;25121;-73
2024/04/14 05:49:46;;;;;;;14.27;3.10;;;;;;;;;;5425005;26;25116;-73
2024/04/14 05:52:12;;;;;;;21.98;2.85;;;;;;;;;;5388717;26;25034;-74
2024/04/14 05:57:23;;;;;;;13.88;2.63;;;;;;;;;;5397070;26;25035;-72
2024/04/14 05:59:49;;;;;;;18.55;3.20;;;;;;;;;;5391068;26;25060;-72
2024/04/14 06:02:15;;;;;;;12.95;3.33;;;;;;;;;;5408204;26;25037;-73
2024/04/14 06:04:41;;;;;;;15.85;3.00;;;;;;;;;;5417655;21;25077;-75
2024/04/14 06:07:07;;;;;;;15.50;2.65;;;;;;;;;;5408892;26;25023;-76
2024/04/14 06:09:33;;;;;;;15.75;3.47;;;;;;;;;;5368349;26;25058;-76
2024/04/14 06:11:59;;;;;;;24.67;4.03;;;;;;;;;;5411314;26;25048;-75
2024/04/14 06:14:25;;;;;;;13.55;2.70;;;;;;;;;;5383906;26;25067;-74
2024/04/14 06:16:51;;;;;;;15.05;2.50;;;;;;;;;;5388248;26;25058;-76
2024/04/14 06:19:17;;;;;;;18.75;3.65;;;;;;;;;;5373905;26;25110;-75
2024/04/14 06:21:44;;;;;;;19.83;3.50;;;;;;;;;;5375773;26;25092;-74
2024/04/14 06:24:10;;;;;;;15.70;3.38;;;;;;;;;;5334587;26;25057;-77
2024/04/14 06:26:37;;;;;;;15.95;2.58;;;;;;;;;;5381469;26;25070;-75
2024/04/14 06:29:03;;;;;;;19.73;3.40;;;;;;;;;;5348014;26;25063;-75
2024/04/14 06:31:29;;;;;;;22.35;3.35;;;;;;;;;;5344712;26;25035;-79
2024/04/14 06:33:55;;;;;;;17.23;3.55;;;;;;;;;;5331720;26;25046;-76
2024/04/14 06:36:20;;;;;;;11.25;2.70;;;;;;;;;;5346965;26;25039;-75
2024/04/14 06:38:46;;;;;;;12.30;2.88;;;;;;;;;;5370667;26;25034;-76
2024/04/14 06:41:12;;;;;;;18.23;3.28;;;;;;;;;;5341910;26;25034;-77
2024/04/14 06:43:39;;;;;;;13.07;2.83;;;;;;;;;;5332482;26;25144;-75
2024/04/14 06:46:05;;;;;;;12.77;3.28;;;;;;;;;;5337637;26;25069;-77
2024/04/14 06:48:30;;;;;;;13.80;2.97;;;;;;;;;;5332786;26;25073;-75
2024/04/14 06:50:56;;;;;;;17.52;3.50;;;;;;;;;;5331716;26;25062;-75
2024/04/14 06:53:22;;;;;;;12.85;3.20;;;;;;;;;;5331071;26;25061;-75
2024/04/14 06:55:50;;;;;;;18.08;3.58;;;;;;;;;;5323685;26;25060;-73
2024/04/14 06:58:16;;;;;;;12.07;2.80;;;;;;;;;;5345387;26;25065;-76
2024/04/14 07:00:42;;;;;;;12.98;2.50;;;;;;;;;;5342598;26;25068;-78
2024/04/14 07:03:09;;;;;;;9.68;2.47;;;;;;;;;;5350671;26;25089;-75
2024/04/14 07:05:35;;;;;;;17.48;2.78;;;;;;;;;;5342970;26;25063;-75
2024/04/14 07:08:01;;;;;;;13.50;3.20;;;;;;;;;;5340683;26;25059;-75
2024/04/14 07:10:27;;;;;;;12.50;2.35;;;;;;;;;;5339997;26;25054;-75
2024/04/14 07:12:53;;;;;;;8.68;2.45;;;;;;;;;;5333970;26;25093;-75
2024/04/14 07:15:19;;;;;;;15.10;2.78;;;;;;;;;;5340499;26;25065;-75
2024/04/14 07:17:45;;;;;;;17.15;2.88;;;;;;;;;;5340324;26;25097;-78
2024/04/14 07:20:11;;;;;;;15.25;3.13;;;;;;;;;;5326347;26;25061;-75
2024/04/14 07:22:37;;;;;;;10.18;2.38;;;;;;;;;;5329864;26;25058;-75
2024/04/14 07:25:03;;;;;;;11.95;2.03;;;;;;;;;;5335692;26;25138;-74
2024/04/14 07:27:29;;;;;;;10.02;2.00;;;;;;;;;;5362255;26;25033;-74
2024/04/14 07:29:55;;;;;;;12.40;2.35;;;;;;;;;;5341808;26;25046;-76
2024/04/14 07:32:21;;;;;;;12.30;2.80;;;;;;;;;;5358208;26;25086;-76
2024/04/14 07:34:48;;;;;;;10.10;2.53;;;;;;;;;;5356385;26;25051;-74
2024/04/14 07:37:13;;;;;;;7.00;2.00;;;;;;;;;;5363390;26;25040;-75
2024/04/14 07:39:40;;;;;;;11.32;2.88;;;;;;;;;;5339398;26;25085;-74
2024/04/14 07:42:08;;;;;;;9.27;2.20;;;;;;;;;;5367701;26;25065;-76
2024/04/14 07:44:34;;;;;;;9.25;2.30;;;;;;;;;;5368629;26;25110;-74
2024/04/14 07:47:00;;;;;;;14.05;2.60;;;;;;;;;;5360004;26;25066;-75
2024/04/14 07:49:25;;;;;;;16.17;3.15;;;;;;;;;;5365418;26;25071;-75
2024/04/14 07:51:51;;;;;;;9.02;2.03;;;;;;;;;;5367992;26;25063;-76
2024/04/14 07:54:17;;;;;;;8.52;2.75;;;;;;;;;;5375045;26;25118;-75
2024/04/14 07:56:43;;;;;;;8.85;2.30;;;;;;;;;;5384217;26;25032;-75
2024/04/14 07:59:09;;;;;;;9.35;2.13;;;;;;;;;;5372825;26;25096;-74
2024/04/14 08:01:35;;;;;;;12.07;2.40;;;;;;;;;;5373124;26;25061;-74
2024/04/14 08:04:01;;;;;;;9.40;2.25;;;;;;;;;;5369292;26;25061;-74
2024/04/14 08:06:27;;;;;;;10.48;2.65;;;;;;;;;;5373230;26;25048;-75
2024/04/14 08:08:54;;;;;;;10.43;2.22;;;;;;;;;;5382444;26;25066;-76
2024/04/14 08:11:21;;;;;;;10.40;2.20;;;;;;;;;;5376695;26;25039;-76
2024/04/14 08:13:46;;;;;;;7.95;1.80;;;;;;;;;;5373362;26;25121;-75
2024/04/14 08:16:12;;;;;;;7.40;2.20;;;;;;;;;;5365987;26;25046;-77
2024/04/14 08:18:38;;;;;;;8.57;1.88;;;;;;;;;;5375703;26;25184;-73
2024/04/14 08:21:05;;;;;;;10.02;2.47;;;;;;;;;;5336402;26;25058;-76
2024/04/14 08:23:31;;;;;;;4.35;1.70;;;;;;;;;;5360848;26;25089;-76
2024/04/14 08:25:57;;;;;;;7.95;1.92;;;;;;;;;;5372924;26;25101;-76
2024/04/14 08:28:23;;;;;;;9.45;1.95;;;;;;;;;;5383809;26;25087;-75
2024/04/14 08:30:49;;;;;;;7.95;2.03;;;;;;;;;;5387814;26;25057;-77
2024/04/14 08:33:15;;;;;;;7.97;2.25;;;;;;;;;;5373038;26;25037;-75
2024/04/14 08:35:41;;;;;;;9.25;2.72;;;;;;;;;;5372977;26;25064;-74
2024/04/14 08:38:07;;;;;;;9.70;1.65;;;;;;;;;;5374410;26;25048;-75
2024/04/14 08:40:33;;;;;;;3.20;1.10;;;;;;;;;;5381082;26;25113;-76
2024/04/14 08:42:59;;;;;;;7.55;1.55;;;;;;;;;;5372094;26;25063;-75
2024/04/14 08:45:25;;;;;;;8.07;1.35;;;;;;;;;;5372064;26;25030;-75
2024/04/14 08:47:55;;;;;;;7.70;2.00;;;;;;;;;;5388689;26;25084;-74
2024/04/14 08:50:22;;;;;;;6.95;2.00;;;;;;;;;;5361801;26;25062;-76
2024/04/14 08:52:49;;;;;;;4.50;1.75;;;;;;;;;;5362607;26;25051;-75
2024/04/14 08:55:15;;;;;;;4.03;1.63;;;;;;;;;;5361425;26;25076;-75
2024/04/14 08:57:41;;;;;;;8.60;1.70;;;;;;;;;;5371485;26;25043;-75
2024/04/14 09:00:12;;;;;;;5.32;1.95;;;;;;;;;;5371971;26;25051;-77
2024/04/14 09:02:43;;;;;;;7.03;2.22;;;;;;;;;;5372536;26;25060;-75
2024/04/14 09:05:12;;;;;;;5.95;2.13;;;;;;;;;;5370619;26;25107;-74
2024/04/14 09:07:38;;;;;;;7.78;2.00;;;;;;;;;;5383350;26;25054;-74
2024/04/14 09:10:04;;;;;;;4.82;1.40;;;;;;;;;;5374487;26;25037;-75
2024/04/14 09:12:30;;;;;;;7.45;2.00;;;;;;;;;;5369429;26;25057;-75
2024/04/14 09:14:56;;;;;;;6.45;1.67;;;;;;;;;;5379586;26;25043;-74
2024/04/14 09:17:22;;;;;;;6.90;1.90;;;;;;;;;;5361458;26;25139;-74
2024/04/14 09:19:48;;;;;;;5.53;1.92;;;;;;;;;;5374020;26;25056;-73
2024/04/14 09:22:15;;;;;;;9.90;1.98;;;;;;;;;;5361292;26;25059;-75
2024/04/14 09:24:41;;;;;;;4.70;2.30;;;;;;;;;;5373813;26;25050;-75
2024/04/14 09:27:07;;;;;;;8.52;2.15;;;;;;;;;;5372794;26;25097;-75
2024/04/14 09:29:34;;;;;;;10.27;2.30;;;;;;;;;;5358184;26;25064;-76
2024/04/14 09:32:00;;;;;;;7.72;1.90;;;;;;;;;;5360214;26;25032;-75
2024/04/14 09:34:26;;;;;;;6.97;1.80;;;;;;;;;;5355027;26;25117;-74
2024/04/14 09:36:52;;;;;;;8.73;2.20;;;;;;;;;;5338584;26;25048;-75
2024/04/14 09:39:19;;;;;;;6.28;2.13;;;;;;;;;;5335210;26;25085;-75
2024/04/14 09:41:45;;;;;;;7.15;2.75;;;;;;;;;;5371134;26;25038;-77
2024/04/14 09:44:12;;;;;;;6.55;2.13;;;;;;;;;;5370952;26;25062;-76
2024/04/14 09:46:38;;;;;;;10.95;2.10;;;;;;;;;;5371100;26;25027;-74
2024/04/14 09:49:07;;;;;;;10.05;2.38;;;;;;;;;;5373672;26;25077;-75
2024/04/14 09:51:38;;;;;;;5.95;1.98;;;;;;;;;;5369005;26;25066;-74
2024/04/14 09:54:04;;;;;;;7.65;2.17;;;;;;;;;;5374708;26;25054;-74
2024/04/14 09:56:30;;;;;;;10.60;2.80;;;;;;;;;;5369990;26;25125;-75
2024/04/14 09:58:56;;;;;;;8.13;2.80;;;;;;;;;;5374556;26;25077;-75
2024/04/14 10:01:30;;;;;;;8.60;2.38;;;;;;;;;;5360743;26;25070;-74
2024/04/14 10:04:00;;;;;;;9.57;1.98;;;;;;;;;;5338712;26;25039;-76
2024/04/14 10:06:27;;;;;;;10.13;2.55;;;;;;;;;;5337183;26;25073;-75
2024/04/14 10:08:53;;;;;;;9.15;2.60;;;;;;;;;;5339788;26;25066;-76
2024/04/14 10:11:20;;;;;;;8.30;1.98;;;;;;;;;;5362609;26;25129;-77
2024/04/14 10:13:47;;;;;;;8.10;2.28;;;;;;;;;;5375475;26;25040;-75
2024/04/14 10:16:13;;;;;;;10.90;2.55;;;;;;;;;;5362815;26;25083;-77
2024/04/14 10:18:43;;;;;;;9.25;2.15;;;;;;;;;;5373017;26;25099;-76
2024/04/14 10:21:12;;;;;;;8.48;2.38;;;;;;;;;;5363385;26;25040;-75
2024/04/14 10:23:43;;;;;;;5.70;1.75;;;;;;;;;;5371882;26;25054;-75
2024/04/14 10:26:14;;;;;;;14.75;3.45;;;;;;;;;;5369299;26;25089;-76
2024/04/14 10:28:48;;;;;;;14.13;2.83;;;;;;;;;;5367204;26;25057;-75
2024/04/14 10:31:24;;;;;;;10.10;2.22;;;;;;;;;;5365136;26;25071;-76
2024/04/14 10:34:00;;;;;;;8.52;2.50;;;;;;;;;;5376085;26;25059;-76
2024/04/14 10:36:27;;;;;;;12.07;2.90;;;;;;;;;;5374515;26;25086;-75
2024/04/14 10:38:53;;;;;;;9.02;1.92;;;;;;;;;;5381216;26;25067;-76
2024/04/14 10:41:19;;;;;;;9.90;2.17;;;;;;;;;;5375428;26;25050;-74
2024/04/14 10:43:45;;;;;;;7.30;1.88;;;;;;;;;;5374647;26;24901;-76
2024/04/14 10:46:11;;;;;;;5.88;1.80;;;;;;;;;;5374295;26;25121;-75
2024/04/14 10:48:41;;;;;;;6.50;1.83;;;;;;;;;;5379485;26;25093;-77
2024/04/14 10:51:07;;;;;;;9.68;1.98;;;;;;;;;;5370180;26;25054;-75
2024/04/14 10:53:34;;;;;;;8.57;2.47;;;;;;;;;;5357639;26;25057;-76
2024/04/14 10:56:00;;;;;;;10.85;2.53;;;;;;;;;;5361965;26;25035;-74
2024/04/14 10:58:36;;;;;;;11.85;2.13;;;;;;;;;;5390165;26;25127;-78
2024/04/14 11:01:02;;;;;;;5.60;2.03;;;;;;;;;;5367120;26;25052;-78
2024/04/14 11:03:29;;;;;;;8.82;2.45;;;;;;;;;;5365634;26;25053;-76
2024/04/14 11:05:55;;;;;;;5.07;1.80;;;;;;;;;;5372785;26;25054;-78
2024/04/14 11:08:23;;;;;;;8.50;2.60;;;;;;;;;;5373746;26;25039;-76
2024/04/14 11:10:50;;;;;;;7.72;2.30;;;;;;;;;;5378492;26;25072;-77
2024/04/14 11:13:16;;;;;;;7.32;2.63;;;;;;;;;;5372020;26;25102;-78
2024/04/14 11:15:43;;;;;;;10.40;2.60;;;;;;;;;;5363358;26;25064;-77
2024/04/14 11:18:09;;;;;;;8.57;2.58;;;;;;;;;;5372959;26;25073;-77
2024/04/14 11:20:36;;;;;;;8.60;2.13;;;;;;;;;;5340466;26;25038;-77
2024/04/14 11:23:06;;;;;;;8.13;2.40;;;;;;;;;;5343191;26;25065;-73
2024/04/14 11:25:33;;;;;;;9.10;2.67;;;;;;;;;;5339829;26;25051;-77
2024/04/14 11:27:59;;;;;;;6.82;1.90;;;;;;;;;;5342380;26;25042;-76
2024/04/14 11:30:28;;;;;;;10.38;3.38;;;;;;;;;;5342474;26;25081;-75
2024/04/14 11:32:55;;;;;;;7.22;1.85;;;;;;;;;;5339846;26;25044;-76
2024/04/14 11:35:21;;;;;;;6.97;2.50;;;;;;;;;;5363443;26;25051;-75
2024/04/14 11:37:51;;;;;;;11.73;2.38;;;;;;;;;;5370341;26;25077;-77
2024/04/14 11:40:18;;;;;;;6.30;2.00;;;;;;;;;;5384508;26;25059;-77
2024/04/14 11:42:44;;;;;;;11.20;2.92;;;;;;;;;;5376429;26;25090;-76
2024/04/14 11:45:11;;;;;;;11.10;2.85;;;;;;;;;;5376833;26;25097;-74
2024/04/14 11:47:37;;;;;;;12.93;3.20;;;;;;;;;;5378492;26;25043;-78
2024/04/14 11:50:04;;;;;;;7.80;2.20;;;;;;;;;;5375422;26;25028;-76
2024/04/14 11:52:30;;;;;;;7.05;2.78;;;;;;;;;;5365718;26;25069;-76
2024/04/14 11:54:56;;;;;;;11.15;2.72;;;;;;;;;;5367267;26;25066;-75
2024/04/14 11:57:24;;;;;;;9.45;2.25;;;;;;;;;;5371418;26;25087;-77
2024/04/14 11:59:51;;;;;;;8.65;2.08;;;;;;;;;;5381073;26;25043;-74
2024/04/14 12:02:17;;;;;;;5.63;2.20;;;;;;;;;;5373143;26;25070;-76
2024/04/14 12:04:44;;;;;;;8.43;2.20;;;;;;;;;;5373314;26;25026;-74
2024/04/14 12:07:10;;;;;;;10.93;2.47;;;;;;;;;;5376029;26;25100;-76
2024/04/14 12:09:36;;;;;;;6.65;2.10;;;;;;;;;;5375982;26;25042;-76
2024/04/14 12:12:02;;;;;;;7.35;2.33;;;;;;;;;;5339343;26;25058;-77
2024/04/14 12:14:28;;;;;;;9.02;2.33;;;;;;;;;;5360517;26;25056;-76
2024/04/14 12:17:03;;;;;;;7.78;3.25;;;;;;;;;;5373349;26;25060;-77
2024/04/14 12:19:29;;;;;;;10.82;2.45;;;;;;;;;;5352978;26;25048;-76
2024/04/14 12:21:55;;;;;;;11.57;2.70;;;;;;;;;;5335612;26;25068;-75
2024/04/14 12:24:21;;;;;;;5.25;2.35;;;;;;;;;;5371274;26;25106;-80
2024/04/14 12:26:47;;;;;;;23.33;4.68;;;;;;;;;;5366691;26;25068;-76
2024/04/14 12:29:13;;;;;;;11.45;3.00;;;;;;;;;;5369749;26;25060;-76
2024/04/14 12:31:39;;;;;;;11.35;2.88;;;;;;;;;;5369573;26;25040;-78
2024/04/14 12:34:05;;;;;;;22.75;3.38;;;;;;;;;;5363440;26;25054;-75
2024/04/14 12:36:31;;;;;;;12.40;3.28;;;;;;;;;;5379581;26;25059;-76
2024/04/14 12:38:57;;;;;;;20.65;3.20;;;;;;;;;;5371762;26;25127;-77
2024/04/14 12:41:23;;;;;;;10.55;3.10;;;;;;;;;;5370249;26;25030;-76
2024/04/14 12:43:50;;;;;;;15.40;2.40;;;;;;;;;;5376392;26;25122;-77
2024/04/14 12:46:17;;;;;;;10.77;2.50;;;;;;;;;;5374272;26;25052;-77
2024/04/14 12:48:45;;;;;;;9.18;2.58;;;;;;;;;;5372038;26;25034;-77
2024/04/14 12:51:11;;;;;;;13.48;2.83;;;;;;;;;;5377760;26;25044;-75
2024/04/14 12:53:37;;;;;;;21.02;2.83;;;;;;;;;;5376513;26;25116;-77
2024/04/14 12:56:03;;;;;;;8.10;2.70;;;;;;;;;;5376079;26;25127;-76
2024/04/14 12:58:29;;;;;;;15.82;2.65;;;;;;;;;;5384565;26;25050;-77
2024/04/14 13:00:56;;;;;;;25.52;3.80;;;;;;;;;;5372835;26;25075;-76
2024/04/14 13:03:23;;;;;;;14.35;2.65;;;;;;;;;;5372437;26;25068;-77
2024/04/14 13:05:49;;;;;;;36.00;4.93;;;;;;;;;;5371257;26;25075;-78
2024/04/14 13:08:15;;;;;;;10.70;3.03;;;;;;;;;;5374811;26;25069;-78
2024/04/14 13:10:43;;;;;;;16.52;2.75;;;;;;;;;;5372459;26;25052;-76
2024/04/14 13:13:10;;;;;;;7.93;2.28;;;;;;;;;;5373217;26;25060;-77
2024/04/14 13:15:36;;;;;;;11.00;2.50;;;;;;;;;;5371866;26;25062;-76
2024/04/14 13:18:02;;;;;;;19.38;3.15;;;;;;;;;;5375238;26;25064;-77
2024/04/14 13:20:28;;;;;;;27.83;4.07;;;;;;;;;;5344675;26;25115;-78
2024/04/14 13:22:54;;;;;;;6.82;2.35;;;;;;;;;;5339164;26;25043;-76
2024/04/14 13:25:20;;;;;;;11.90;2.80;;;;;;;;;;5348374;26;25056;-77
2024/04/14 13:27:46;;;;;;;6.88;2.50;;;;;;;;;;5374649;26;25136;-76
2024/04/14 13:30:12;;;;;;;8.30;1.92;;;;;;;;;;5333640;26;25047;-77
2024/04/14 13:32:38;;;;;;;8.23;2.00;;;;;;;;;;5341123;26;25070;-78
2024/04/14 13:35:04;;;;;;;11.43;2.45;;;;;;;;;;5343253;26;25060;-77
2024/04/14 13:37:30;;;;;;;8.57;2.35;;;;;;;;;;5339938;26;25084;-77
2024/04/14 13:39:56;;;;;;;8.73;2.15;;;;;;;;;;5337241;26;25049;-76
2024/04/14 13:42:23;;;;;;;8.25;2.15;;;;;;;;;;5332506;26;25049;-77
2024/04/14 13:44:48;;;;;;;10.98;2.25;;;;;;;;;;5337294;26;25073;-78
2024/04/14 13:47:15;;;;;;;9.95;2.38;;;;;;;;;;5357224;26;25053;-79
2024/04/14 13:49:40;;;;;;;8.07;2.30;;;;;;;;;;5365110;26;25119;-75
2024/04/14 13:52:07;;;;;;;6.57;1.92;;;;;;;;;;5358911;26;25059;-76
2024/04/14 13:54:33;;;;;;;12.77;2.42;;;;;;;;;;5333943;26;25072;-74
2024/04/14 13:56:59;;;;;;;12.52;3.67;;;;;;;;;;5338305;26;25050;-77
2024/04/14 13:59:25;;;;;;;6.20;2.53;;;;;;;;;;5333880;26;25083;-80
2024/04/14 14:01:52;;;;;;;13.93;2.85;;;;;;;;;;5333494;26;25098;-74
2024/04/14 14:04:18;;;;;;;10.18;2.13;;;;;;;;;;5332556;26;25096;-75
2024/04/14 14:06:44;;;;;;;9.77;2.65;;;;;;;;;;5336358;26;25038;-76
2024/04/14 14:09:13;;;;;;;7.50;2.67;;;;;;;;;;5336670;26;25056;-75
2024/04/14 14:11:39;;;;;;;10.75;2.45;;;;;;;;;;5374831;26;25037;-75
2024/04/14 14:14:05;;;;;;;6.65;2.38;;;;;;;;;;5385004;26;25055;-74
2024/04/14 14:16:31;;;;;;;6.93;2.45;;;;;;;;;;5360655;26;25062;-75
2024/04/14 14:18:57;;;;;;;7.28;2.40;;;;;;;;;;5341010;26;25041;-75
2024/04/14 14:21:23;;;;;;;10.27;2.20;;;;;;;;;;5372755;26;24794;-75
2024/04/14 14:23:49;;;;;;;7.40;2.28;;;;;;;;;;5371073;26;25057;-75
2024/04/14 14:26:15;;;;;;;8.63;2.03;;;;;;;;;;5374653;26;25047;-74
2024/04/14 14:28:42;;;;;;;9.75;2.22;;;;;;;;;;5369118;26;25067;-75
2024/04/14 14:31:08;;;;;;;7.90;2.15;;;;;;;;;;5367307;26;25056;-74
2024/04/14 14:36:33;;;;;;;9.85;2.55;;;;;;;;;;5357780;26;25063;-74
2024/04/14 14:39:00;;;;;;;7.03;1.90;;;;;;;;;;5353908;26;25061;-76